Bezoek onze andere website:

De Wijde Wereld



METAR rapporten vliegvelden

   
EHBK - Maastricht
Gewijzigd: 21-05-2019 18:25
Grotendeels bewolkt  
Grotendeels bewolkt  
   Wind: WNW 0 km/h
Wind: WNW 0 km/h
Temperatuur: 15°C
Dauwpunt: 9°C
Vochtigheid: 68%
Barometer: 1016 hPa
Bewolking: Mostly Cloudy
Zicht: meer dan 10 km
Bewolking: Gedeeltelijk bewolkt 823 m,
Grotendeels bewolkt 1036.3 m
EHBK 211625Z AUTO 30007KT 240V360 9999 SCT027 BKN034 15/09 Q1016 NOSIG
LSZA - Lugano
Gewijzigd: 21-05-2019 18:20
Gedeeltelijk bewolkt  
Gedeeltelijk bewolkt  
   Wind: ZW 0 km/h
Wind: ZW 0 km/h
Temperatuur: 22°C
Dauwpunt: 13°C
Vochtigheid: 57%
Barometer: 1009 hPa
Bewolking: Partly Cloudy
Zicht: meer dan 10 km
Bewolking: Licht bewolkt 1371.6 m,
Gedeeltelijk bewolkt 2743.2 m
LSZA 211620Z 22008KT 9999 FEW045TCU SCT090 22/13 Q1009 NOSIG
LIRA - Rome
Gewijzigd: 21-05-2019 18:20
Gedeeltelijk bewolkt  
Gedeeltelijk bewolkt  
   Wind: ZZW 0 km/h
Wind: ZZW 0 km/h
Temperatuur: 18°C
Dauwpunt: 10°C
Vochtigheid: 60%
Barometer: 1015 hPa
Bewolking: Partly Cloudy
Zicht: meer dan 10 km
Bewolking: Gedeeltelijk bewolkt 762 m
LIRA 211620Z 20007KT 170V230 9999 SCT025 18/10 Q1015
LPFR - Faro
Gewijzigd: 21-05-2019 18:30
Licht bewolkt  
Licht bewolkt  
   Wind: Westen 0 km/h
Wind: Westen 0 km/h
Temperatuur: 22°C
Dauwpunt: 14°C
Vochtigheid: 61%
Barometer: 1014 hPa
Bewolking: Few Clouds
Zicht: meer dan 10 km
Bewolking: Licht bewolkt 1066.8 m
LPFR 211630Z 26016KT 9999 FEW035 22/14 Q1014
EBCV - Mons/Bergen
Gewijzigd: 21-05-2019 18:25
Licht bewolkt  
Licht bewolkt  
   Wind: Noorden 0 km/h
Wind: Noorden 0 km/h
Temperatuur: 17°C
Dauwpunt: 9°C
Vochtigheid: 59%
Barometer: 1018 hPa
Bewolking: Few Clouds
Zicht: meer dan 10 km
Bewolking: Licht bewolkt 1249.7 m
EBCV 211625Z AUTO 01013KT 9999 FEW041/// 17/09 Q1018 BLU
EBOS - Oostende
Gewijzigd: 21-05-2019 18:20
Helder  
Helder  
   Wind: Noorden 0 km/h
Wind: Noorden 0 km/h
Temperatuur: 13°C
Dauwpunt: 9°C
Vochtigheid: 77%
Barometer: 1019 hPa
Zicht: meer dan 10 km
Bewolking: Helder m
EBOS 211620Z 01006KT 330V030 CAVOK 13/09 Q1019 NOSIG

Script ontwikkeld door  Saratoga-weather.org Aangepast voor de template door  Weerstation Leuven

Apparatuur in gebruik:

Weerprogramma
Meteohub

Meteohub